Time;durP1;ratioP1;P1;durP2;ratioP2;P2;SDS_P1;SDS_P2;PMS_P1;PMS_P2;Temp;Humidity;BMP_temperature;BMP_pressure;BME280_temperature;BME280_humidity;BME280_pressure;Samples;Min_cycle;Max_cycle;Signal;HPM_P1;HPM_P2
2023/06/30 00:01:27;;;;;;;10.63;2.47;;;15.10;99.90;;;;;;4989483;28;20054;-75
2023/06/30 00:04:16;;;;;;;8.05;2.42;;;15.00;99.90;;;;;;4973670;28;20046;-78
2023/06/30 00:07:02;;;;;;;10.38;2.75;;;14.90;99.90;;;;;;4990052;28;20051;-76
2023/06/30 00:09:50;;;;;;;8.32;2.28;;;14.90;99.90;;;;;;4995297;28;20050;-76
2023/06/30 00:12:36;;;;;;;8.93;2.55;;;14.90;99.90;;;;;;4994144;28;20051;-77
2023/06/30 00:15:22;;;;;;;6.03;2.70;;;14.90;99.90;;;;;;4993293;28;20062;-75
2023/06/30 00:18:08;;;;;;;12.45;2.53;;;14.80;99.90;;;;;;4976001;28;20065;-77
2023/06/30 00:20:54;;;;;;;14.57;3.38;;;14.80;99.90;;;;;;4993947;28;20121;-80
2023/06/30 00:23:40;;;;;;;10.73;2.45;;;14.80;99.90;;;;;;4993156;28;20056;-77
2023/06/30 00:26:30;;;;;;;9.45;2.53;;;14.70;99.90;;;;;;4993810;28;20046;-77
2023/06/30 00:29:16;;;;;;;11.07;2.97;;;14.70;99.90;;;;;;4995065;28;20054;-78
2023/06/30 00:32:02;;;;;;;15.32;3.00;;;14.70;99.90;;;;;;4994369;28;20058;-76
2023/06/30 00:34:48;;;;;;;10.70;2.92;;;14.80;99.90;;;;;;4993396;28;20108;-76
2023/06/30 00:37:35;;;;;;;10.65;2.83;;;14.70;99.90;;;;;;4976062;28;20055;-76
2023/06/30 00:40:21;;;;;;;7.20;2.55;;;14.70;99.90;;;;;;4976076;28;20107;-76
2023/06/30 00:43:07;;;;;;;8.43;2.38;;;14.70;99.90;;;;;;4977194;28;20081;-77
2023/06/30 00:45:53;;;;;;;9.43;2.65;;;14.70;99.90;;;;;;4992126;28;20057;-77
2023/06/30 00:48:39;;;;;;;10.75;3.35;;;14.60;99.90;;;;;;4975177;28;20226;-77
2023/06/30 00:51:26;;;;;;;9.05;2.47;;;14.60;99.90;;;;;;4993489;28;20047;-77
2023/06/30 00:54:13;;;;;;;12.18;2.60;;;14.60;99.90;;;;;;4991937;28;20054;-76
2023/06/30 00:57:04;;;;;;;11.90;2.67;;;14.60;99.90;;;;;;4962793;28;20479;-78
2023/06/30 00:59:50;;;;;;;13.98;3.35;;;14.60;99.90;;;;;;4975017;28;20058;-75
2023/06/30 01:03:19;;;;;;;8.68;3.13;;;14.60;99.90;;;;;;4991629;28;20054;-75
2023/06/30 01:06:27;;;;;;;12.15;3.67;;;14.50;99.90;;;;;;4975705;28;20245;-76
2023/06/30 01:09:18;;;;;;;11.70;3.38;;;14.50;99.90;;;;;;4975206;28;20056;-74
2023/06/30 01:12:05;;;;;;;8.23;3.00;;;14.40;99.90;;;;;;4992387;28;20089;-77
2023/06/30 01:14:53;;;;;;;9.90;3.10;;;14.40;99.90;;;;;;4962622;28;20073;-75
2023/06/30 01:17:46;;;;;;;19.15;3.78;;;14.40;99.90;;;;;;4992040;28;20050;-74
2023/06/30 01:20:33;;;;;;;10.40;2.90;;;14.30;99.90;;;;;;4975495;28;20054;-75
2023/06/30 01:23:34;;;;;;;10.10;3.13;;;14.30;99.90;;;;;;4992642;28;20069;-75
2023/06/30 01:26:22;;;;;;;12.90;3.00;;;14.30;99.90;;;;;;4991977;28;20057;-76
2023/06/30 01:29:10;;;;;;;8.55;2.80;;;14.20;99.90;;;;;;4992136;28;20141;-77
2023/06/30 01:31:57;;;;;;;10.68;3.15;;;14.20;99.90;;;;;;4994191;28;20112;-75
2023/06/30 01:34:47;;;;;;;9.50;2.83;;;14.20;99.90;;;;;;4992799;28;20057;-76
2023/06/30 01:37:33;;;;;;;12.32;2.95;;;14.10;99.90;;;;;;4991408;28;20085;-75
2023/06/30 01:40:20;;;;;;;10.32;3.03;;;14.10;99.90;;;;;;4992520;28;20054;-75
2023/06/30 01:43:06;;;;;;;11.13;3.13;;;14.10;99.90;;;;;;4978562;28;20047;-76
2023/06/30 01:45:53;;;;;;;9.70;2.38;;;14.10;99.90;;;;;;4991999;28;20507;-76
2023/06/30 01:48:40;;;;;;;10.38;3.42;;;14.10;99.90;;;;;;4974260;28;20530;-76
2023/06/30 01:51:27;;;;;;;10.50;3.35;;;14.10;99.90;;;;;;4992294;28;20414;-75
2023/06/30 01:54:13;;;;;;;8.25;2.58;;;14.10;99.90;;;;;;4991838;28;20142;-77
2023/06/30 01:56:59;;;;;;;5.88;1.90;;;14.00;99.90;;;;;;4975591;28;20065;-76
2023/06/30 01:59:45;;;;;;;8.70;2.50;;;14.10;99.90;;;;;;4991461;28;20762;-76
2023/06/30 02:02:31;;;;;;;7.95;2.20;;;14.10;99.90;;;;;;4973755;28;20054;-76
2023/06/30 02:05:17;;;;;;;9.77;2.45;;;14.10;99.90;;;;;;4992261;28;20141;-77
2023/06/30 02:08:04;;;;;;;6.65;2.95;;;14.10;99.90;;;;;;4974716;28;20104;-76
2023/06/30 02:10:50;;;;;;;7.50;2.20;;;14.10;99.90;;;;;;4992246;28;20061;-75
2023/06/30 02:13:36;;;;;;;13.80;2.47;;;14.10;99.90;;;;;;4991896;28;20054;-76
2023/06/30 02:16:22;;;;;;;7.13;2.42;;;14.20;99.90;;;;;;4973515;28;20117;-76
2023/06/30 02:19:09;;;;;;;9.60;2.38;;;14.10;99.90;;;;;;4990776;28;20061;-79
2023/06/30 02:21:55;;;;;;;9.55;2.55;;;14.10;99.90;;;;;;4990956;28;20054;-79
2023/06/30 02:24:41;;;;;;;9.18;3.20;;;14.10;99.90;;;;;;4972920;28;20055;-75
2023/06/30 02:27:28;;;;;;;12.48;3.10;;;14.10;99.90;;;;;;4990429;28;20100;-76
2023/06/30 02:30:14;;;;;;;8.23;2.22;;;14.00;99.90;;;;;;4991276;28;20116;-75
2023/06/30 02:33:00;;;;;;;9.02;2.20;;;14.00;99.90;;;;;;4991652;28;20054;-76
2023/06/30 02:35:46;;;;;;;11.98;3.13;;;14.00;99.90;;;;;;4989863;28;20062;-75
2023/06/30 02:38:32;;;;;;;8.40;3.05;;;14.00;99.90;;;;;;4975324;28;20089;-76
2023/06/30 02:41:18;;;;;;;8.45;3.20;;;14.00;99.90;;;;;;4990332;28;20054;-76
2023/06/30 02:44:04;;;;;;;15.90;3.30;;;14.00;99.90;;;;;;4973232;28;20062;-76
2023/06/30 02:46:50;;;;;;;8.63;2.90;;;14.00;99.90;;;;;;4974120;28;20161;-75
2023/06/30 02:49:36;;;;;;;8.57;3.25;;;14.00;99.90;;;;;;4972797;28;20129;-76
2023/06/30 02:52:23;;;;;;;8.32;3.08;;;13.90;99.90;;;;;;4990689;28;20046;-75
2023/06/30 02:55:09;;;;;;;13.57;3.78;;;13.90;99.90;;;;;;4976575;28;20050;-77
2023/06/30 02:57:56;;;;;;;12.98;3.45;;;13.90;99.90;;;;;;4992723;28;20104;-76
2023/06/30 03:00:42;;;;;;;15.23;3.45;;;13.90;99.90;;;;;;4990136;28;20070;-75
2023/06/30 03:03:28;;;;;;;9.75;3.70;;;13.80;99.90;;;;;;4973463;28;20054;-77
2023/06/30 03:06:14;;;;;;;11.02;3.78;;;13.80;99.90;;;;;;4972967;28;20161;-76
2023/06/30 03:09:03;;;;;;;14.35;4.07;;;13.80;99.90;;;;;;4973114;28;20129;-77
2023/06/30 03:11:49;;;;;;;10.25;4.20;;;13.80;99.90;;;;;;4989846;28;20489;-75
2023/06/30 03:14:35;;;;;;;10.45;3.47;;;13.80;99.90;;;;;;4973857;28;20065;-76
2023/06/30 03:17:21;;;;;;;10.43;3.85;;;13.70;99.90;;;;;;4989414;28;20089;-76
2023/06/30 03:20:12;;;;;;;9.77;4.30;;;13.70;99.90;;;;;;4972790;28;20069;-77
2023/06/30 03:22:58;;;;;;;11.00;4.85;;;13.80;99.90;;;;;;4973099;28;20064;-76
2023/06/30 03:25:44;;;;;;;13.70;4.10;;;13.80;99.90;;;;;;4988955;28;20046;-76
2023/06/30 03:28:30;;;;;;;13.63;4.18;;;13.80;99.90;;;;;;4972958;28;20507;-77
2023/06/30 03:31:17;;;;;;;8.63;4.55;;;13.80;99.90;;;;;;4990216;28;20061;-77
2023/06/30 03:34:03;;;;;;;11.60;4.05;;;13.80;99.90;;;;;;4990537;28;20491;-75
2023/06/30 03:36:50;;;;;;;10.95;3.40;;;13.70;99.90;;;;;;4989888;28;20169;-79
2023/06/30 03:39:36;;;;;;;9.13;3.45;;;13.70;99.90;;;;;;4988928;28;20051;-76
2023/06/30 03:42:22;;;;;;;7.97;3.65;;;13.80;99.90;;;;;;4972359;28;20065;-76
2023/06/30 03:45:09;;;;;;;10.02;3.35;;;13.70;99.90;;;;;;4990895;28;20054;-76
2023/06/30 03:47:55;;;;;;;5.75;2.30;;;13.80;99.90;;;;;;4989827;28;20085;-75
2023/06/30 03:50:43;;;;;;;4.55;1.67;;;13.90;99.90;;;;;;4991011;28;20490;-76
2023/06/30 03:53:29;;;;;;;7.47;2.08;;;14.00;99.90;;;;;;4991041;28;20561;-79
2023/06/30 03:56:15;;;;;;;4.72;1.05;;;14.20;99.90;;;;;;4990042;28;20062;-75
2023/06/30 03:59:01;;;;;;;4.13;1.20;;;14.30;99.90;;;;;;4972077;28;20054;-77
2023/06/30 04:01:47;;;;;;;4.68;2.00;;;14.40;99.90;;;;;;4990005;28;20086;-75
2023/06/30 04:04:33;;;;;;;3.15;1.00;;;14.50;99.90;;;;;;4990318;28;20057;-75
2023/06/30 04:07:20;;;;;;;3.78;1.30;;;14.60;99.90;;;;;;4990486;28;20056;-78
2023/06/30 04:10:06;;;;;;;5.75;1.58;;;14.60;99.90;;;;;;4989407;28;20055;-75
2023/06/30 04:12:52;;;;;;;6.63;1.70;;;14.70;99.90;;;;;;4989607;28;20730;-76
2023/06/30 04:15:39;;;;;;;6.15;1.13;;;14.80;99.90;;;;;;4990435;28;20136;-77
2023/06/30 04:18:27;;;;;;;5.70;1.20;;;14.90;99.90;;;;;;4988862;28;20060;-76
2023/06/30 04:21:13;;;;;;;3.00;1.10;;;14.90;99.90;;;;;;4990127;28;20061;-76
2023/06/30 04:23:59;;;;;;;3.75;0.90;;;15.00;99.90;;;;;;4971901;28;20574;-76
2023/06/30 04:26:45;;;;;;;5.50;1.75;;;15.10;99.90;;;;;;4988576;28;20050;-76
2023/06/30 04:29:31;;;;;;;5.90;0.90;;;15.20;99.90;;;;;;4989629;28;20129;-76
2023/06/30 04:32:17;;;;;;;4.78;1.20;;;15.20;99.90;;;;;;4959631;28;20098;-76
2023/06/30 04:35:04;;;;;;;5.78;1.38;;;15.30;99.90;;;;;;4973274;28;20064;-76
2023/06/30 04:37:51;;;;;;;5.40;1.50;;;15.30;99.90;;;;;;4987921;28;20461;-75
2023/06/30 04:40:37;;;;;;;6.10;1.20;;;15.40;99.90;;;;;;4989729;28;20129;-74
2023/06/30 04:43:23;;;;;;;11.50;1.42;;;15.40;99.90;;;;;;4990196;28;20059;-74
2023/06/30 04:46:10;;;;;;;8.48;1.58;;;15.50;99.90;;;;;;4989942;28;20050;-75
2023/06/30 04:48:56;;;;;;;2.90;1.00;;;15.50;99.90;;;;;;4988678;28;20054;-74
2023/06/30 04:51:42;;;;;;;5.82;1.20;;;15.60;99.90;;;;;;4988737;28;20073;-75
2023/06/30 04:54:28;;;;;;;5.82;1.50;;;15.70;99.90;;;;;;4992111;28;20081;-75
2023/06/30 04:57:14;;;;;;;6.18;1.30;;;15.70;99.90;;;;;;4992821;28;20058;-76
2023/06/30 05:00:00;;;;;;;2.90;1.20;;;15.80;99.90;;;;;;4991712;28;20414;-75
2023/06/30 05:02:47;;;;;;;5.00;1.30;;;16.00;99.90;;;;;;4978031;28;20061;-73
2023/06/30 05:05:33;;;;;;;5.28;1.27;;;16.10;99.90;;;;;;4975742;28;20858;-78
2023/06/30 05:08:19;;;;;;;6.90;1.30;;;16.30;99.90;;;;;;4992357;28;20046;-77
2023/06/30 05:11:06;;;;;;;7.28;1.25;;;16.40;99.90;;;;;;4991802;28;20149;-76
2023/06/30 05:13:52;;;;;;;4.93;1.70;;;16.50;99.90;;;;;;4993569;28;20054;-76
2023/06/30 05:16:38;;;;;;;4.25;1.00;;;16.50;99.90;;;;;;4992734;28;20066;-75
2023/06/30 05:19:24;;;;;;;4.60;1.40;;;16.50;99.90;;;;;;4991677;28;20081;-81
2023/06/30 05:22:10;;;;;;;7.93;1.13;;;16.50;99.90;;;;;;4975467;28;20086;-74
2023/06/30 05:24:56;;;;;;;7.00;1.85;;;16.60;99.90;;;;;;4992256;28;20186;-79
2023/06/30 05:27:42;;;;;;;10.38;1.25;;;16.70;99.90;;;;;;4991797;28;20070;-76
2023/06/30 05:30:31;;;;;;;6.32;1.50;;;16.70;99.90;;;;;;4961280;28;20054;-76
2023/06/30 05:33:17;;;;;;;5.03;1.02;;;16.80;99.90;;;;;;4991851;28;20511;-79
2023/06/30 05:36:04;;;;;;;3.67;1.00;;;16.90;99.90;;;;;;4991295;28;20051;-76
2023/06/30 05:38:50;;;;;;;3.42;1.30;;;17.00;99.90;;;;;;4974122;28;20050;-75
2023/06/30 05:41:36;;;;;;;5.53;1.70;;;17.00;99.90;;;;;;4991734;28;20150;-79
2023/06/30 05:44:22;;;;;;;8.75;1.63;;;17.10;99.90;;;;;;4993506;28;20054;-77
2023/06/30 05:47:08;;;;;;;4.97;1.50;;;17.10;99.90;;;;;;4973717;28;20410;-75
2023/06/30 05:49:54;;;;;;;3.65;1.02;;;17.20;99.90;;;;;;4991760;28;20046;-76
2023/06/30 05:52:40;;;;;;;6.90;1.38;;;17.20;99.90;;;;;;4992369;28;20058;-75
2023/06/30 05:55:27;;;;;;;6.95;1.38;;;17.20;99.90;;;;;;4992538;28;20057;-75
2023/06/30 05:58:13;;;;;;;4.60;1.10;;;17.20;99.90;;;;;;4991696;28;20050;-75
2023/06/30 06:00:59;;;;;;;7.18;1.33;;;17.30;99.90;;;;;;4990714;28;20140;-76
2023/06/30 06:03:45;;;;;;;8.30;1.52;;;17.50;99.90;;;;;;4991214;28;20054;-76
2023/06/30 06:06:31;;;;;;;5.93;1.85;;;17.50;99.90;;;;;;4990065;28;20466;-76
2023/06/30 06:09:18;;;;;;;5.38;1.23;;;17.70;99.90;;;;;;4974140;28;20117;-75
2023/06/30 06:12:04;;;;;;;7.28;1.20;;;17.90;99.90;;;;;;4975802;28;20054;-76
2023/06/30 06:14:50;;;;;;;6.55;1.25;;;18.00;99.90;;;;;;4991862;28;20046;-76
2023/06/30 06:17:37;;;;;;;10.30;2.25;;;18.00;99.90;;;;;;4991168;28;20043;-75
2023/06/30 06:20:23;;;;;;;5.35;1.23;;;18.20;99.90;;;;;;4973738;28;20105;-79
2023/06/30 06:23:09;;;;;;;8.07;1.20;;;18.20;99.90;;;;;;4990854;28;20065;-76
2023/06/30 06:25:55;;;;;;;6.30;1.00;;;18.40;99.90;;;;;;4992758;28;20193;-76
2023/06/30 06:28:41;;;;;;;5.97;1.30;;;18.40;99.90;;;;;;4992912;28;20050;-76
2023/06/30 06:31:27;;;;;;;8.50;1.23;;;18.40;99.90;;;;;;4971919;28;20577;-78
2023/06/30 06:34:13;;;;;;;7.82;1.60;;;18.20;99.90;;;;;;4972767;28;20503;-78
2023/06/30 06:37:00;;;;;;;4.47;1.00;;;18.10;99.90;;;;;;4991923;28;20486;-77
2023/06/30 06:39:46;;;;;;;5.43;1.00;;;17.90;99.90;;;;;;4976446;28;20062;-78
2023/06/30 06:42:32;;;;;;;4.25;1.77;;;17.90;99.90;;;;;;4973367;28;20536;-75
2023/06/30 06:45:18;;;;;;;5.10;1.10;;;17.80;99.90;;;;;;4973798;28;20095;-77
2023/06/30 06:48:20;;;;;;;5.68;1.30;;;17.90;99.90;;;;;;4973907;28;20371;-77
2023/06/30 06:51:06;;;;;;;4.45;0.82;;;18.10;99.90;;;;;;4990317;28;20057;-77
2023/06/30 06:53:53;;;;;;;7.15;1.13;;;18.10;99.90;;;;;;4972932;28;20051;-76
2023/06/30 06:56:39;;;;;;;6.63;1.17;;;18.30;99.90;;;;;;4990194;28;20174;-77
2023/06/30 06:59:25;;;;;;;5.57;1.00;;;18.70;99.90;;;;;;4976917;28;20483;-79
2023/06/30 07:02:12;;;;;;;7.18;0.95;;;18.80;99.90;;;;;;4990157;28;20133;-75
2023/06/30 07:04:58;;;;;;;3.58;0.80;;;19.00;99.90;;;;;;4990104;28;20217;-77
2023/06/30 07:07:44;;;;;;;5.35;1.15;;;19.30;99.90;;;;;;4972624;28;20058;-77
2023/06/30 07:10:30;;;;;;;5.13;1.10;;;19.30;99.90;;;;;;4989390;28;20050;-78
2023/06/30 07:13:19;;;;;;;7.22;1.85;;;19.40;99.90;;;;;;4990851;28;20136;-76
2023/06/30 07:16:06;;;;;;;8.10;1.40;;;19.20;99.90;;;;;;4990096;28;20061;-77
2023/06/30 07:18:52;;;;;;;7.97;1.60;;;19.20;99.90;;;;;;4975095;28;20054;-78
2023/06/30 07:21:38;;;;;;;3.70;1.02;;;19.30;99.90;;;;;;4990700;28;20642;-76
2023/06/30 07:24:24;;;;;;;9.35;1.52;;;19.30;99.90;;;;;;4990058;28;20050;-75
2023/06/30 07:27:10;;;;;;;5.25;1.40;;;19.00;99.90;;;;;;4976358;28;20426;-75
2023/06/30 07:29:57;;;;;;;4.72;1.10;;;18.70;99.90;;;;;;4972256;28;20051;-76
2023/06/30 07:32:43;;;;;;;5.65;1.02;;;18.60;99.90;;;;;;4990616;28;20047;-75
2023/06/30 07:35:29;;;;;;;7.65;1.25;;;18.80;99.90;;;;;;4973661;28;20406;-76
2023/06/30 07:38:16;;;;;;;7.38;1.90;;;19.20;99.90;;;;;;4988835;28;20419;-76
2023/06/30 07:41:02;;;;;;;5.38;1.27;;;19.50;99.90;;;;;;4976407;28;20108;-77
2023/06/30 07:43:48;;;;;;;6.78;1.25;;;19.60;99.90;;;;;;4973183;28;20093;-77
2023/06/30 07:46:34;;;;;;;49.75;7.70;;;19.90;99.90;;;;;;4988425;28;20047;-78
2023/06/30 07:49:21;;;;;;;6.90;1.40;;;20.00;99.90;;;;;;4989644;28;20058;-77
2023/06/30 07:52:07;;;;;;;30.45;5.43;;;20.00;99.90;;;;;;4989288;28;20068;-79
2023/06/30 07:54:55;;;;;;;6.85;1.63;;;20.30;99.90;;;;;;4990172;28;20046;-77
2023/06/30 07:57:42;;;;;;;6.18;1.15;;;20.50;99.90;;;;;;4989412;28;20050;-80
2023/06/30 08:00:29;;;;;;;6.43;1.17;;;20.60;99.90;;;;;;4989956;28;20063;-80
2023/06/30 08:03:15;;;;;;;5.07;1.33;;;20.70;99.90;;;;;;4959815;28;20046;-78
2023/06/30 08:06:01;;;;;;;4.03;1.20;;;21.00;99.90;;;;;;4989781;28;20046;-78
2023/06/30 08:08:47;;;;;;;5.00;1.30;;;21.20;99.90;;;;;;4990541;28;20145;-79
2023/06/30 08:11:33;;;;;;;4.68;1.20;;;21.10;99.90;;;;;;4972073;28;20061;-77
2023/06/30 08:14:19;;;;;;;3.80;1.08;;;21.10;99.90;;;;;;4991293;28;20171;-77
2023/06/30 08:17:05;;;;;;;6.78;1.65;;;21.20;99.90;;;;;;4988460;28;20058;-77
2023/06/30 08:19:51;;;;;;;3.72;1.10;;;21.30;99.90;;;;;;4971917;28;20146;-76
2023/06/30 08:22:38;;;;;;;6.85;1.23;;;21.30;99.90;;;;;;4989332;28;20114;-80
2023/06/30 08:25:25;;;;;;;6.18;1.13;;;21.50;99.90;;;;;;4989762;28;20050;-77
2023/06/30 08:28:11;;;;;;;4.80;1.92;;;21.70;99.90;;;;;;4989319;28;20568;-77
2023/06/30 08:30:57;;;;;;;3.53;1.23;;;22.00;99.90;;;;;;4992338;28;20054;-77
2023/06/30 08:33:44;;;;;;;4.65;1.23;;;22.20;99.90;;;;;;4975742;28;20054;-77
2023/06/30 08:36:30;;;;;;;5.75;1.30;;;22.10;99.90;;;;;;4993902;28;20498;-76
2023/06/30 08:39:16;;;;;;;12.38;1.40;;;22.10;99.90;;;;;;4991463;28;20047;-77
2023/06/30 08:42:05;;;;;;;5.57;1.02;;;22.00;99.80;;;;;;4977090;28;20410;-77
2023/06/30 08:44:53;;;;;;;6.18;1.20;;;22.30;99.40;;;;;;4976885;28;20513;-77
2023/06/30 08:47:39;;;;;;;3.33;0.98;;;22.10;99.60;;;;;;4975173;28;20078;-76
2023/06/30 08:50:26;;;;;;;4.43;0.98;;;22.40;99.60;;;;;;4994872;28;20054;-78
2023/06/30 08:53:12;;;;;;;4.90;1.08;;;22.10;98.90;;;;;;4993604;28;20050;-77
2023/06/30 08:55:59;;;;;;;5.05;1.35;;;22.20;99.10;;;;;;4991992;28;20058;-77
2023/06/30 08:58:45;;;;;;;6.40;1.63;;;22.40;98.60;;;;;;4993297;28;20054;-77
2023/06/30 09:01:32;;;;;;;6.85;1.27;;;22.40;97.60;;;;;;4995371;28;20057;-76
2023/06/30 09:04:18;;;;;;;7.65;1.05;;;22.60;97.20;;;;;;4991504;28;20081;-78
2023/06/30 09:07:07;;;;;;;7.95;1.30;;;22.70;96.50;;;;;;4975598;28;20129;-74
2023/06/30 09:09:56;;;;;;;5.40;1.13;;;22.90;95.10;;;;;;4976198;28;20075;-76
2023/06/30 09:12:46;;;;;;;7.07;1.27;;;23.00;94.30;;;;;;4992536;28;20043;-76
2023/06/30 09:15:33;;;;;;;4.30;0.90;;;23.10;94.10;;;;;;4975822;28;20054;-78
2023/06/30 09:18:19;;;;;;;5.50;1.23;;;23.10;93.90;;;;;;4992908;28;20077;-77
2023/06/30 09:21:06;;;;;;;3.85;0.90;;;23.20;93.20;;;;;;4993672;28;20050;-77
2023/06/30 09:23:53;;;;;;;3.67;0.90;;;23.20;93.00;;;;;;4992891;28;20046;-78
2023/06/30 09:26:39;;;;;;;6.32;1.42;;;23.40;92.90;;;;;;4992165;28;20061;-76
2023/06/30 09:29:30;;;;;;;8.13;1.15;;;23.50;93.00;;;;;;4960648;28;20054;-76
2023/06/30 09:32:16;;;;;;;7.07;1.27;;;23.70;92.50;;;;;;4975113;28;20058;-77
2023/06/30 09:35:06;;;;;;;4.90;1.17;;;23.90;92.40;;;;;;4992214;28;20057;-78
2023/06/30 09:37:53;;;;;;;2.95;1.10;;;23.90;92.70;;;;;;4991817;28;20050;-76
2023/06/30 09:40:47;;;;;;;8.70;2.03;;;23.90;92.60;;;;;;4975374;28;20053;-78
2023/06/30 09:43:35;;;;;;;4.15;1.38;;;24.00;92.80;;;;;;4991955;28;20050;-76
2023/06/30 09:46:21;;;;;;;5.57;1.70;;;24.20;93.30;;;;;;4974196;28;20125;-76
2023/06/30 09:49:07;;;;;;;4.43;1.00;;;24.30;92.60;;;;;;4991342;28;20490;-78
2023/06/30 09:51:56;;;;;;;3.30;1.00;;;24.30;92.50;;;;;;4990682;28;20514;-76
2023/06/30 09:54:42;;;;;;;2.92;1.00;;;24.10;92.30;;;;;;4992079;28;20046;-75
2023/06/30 09:57:28;;;;;;;12.10;3.47;;;24.00;92.70;;;;;;4990397;28;20094;-76
2023/06/30 10:00:19;;;;;;;5.97;1.15;;;23.90;93.00;;;;;;4973238;28;20399;-80
2023/06/30 10:03:06;;;;;;;6.47;1.30;;;24.00;93.00;;;;;;4991000;28;20050;-77
2023/06/30 10:05:53;;;;;;;5.95;1.20;;;24.00;93.10;;;;;;4993122;28;20117;-76
2023/06/30 10:08:39;;;;;;;4.32;1.02;;;24.30;92.50;;;;;;4993812;28;20140;-79
2023/06/30 10:11:28;;;;;;;6.45;1.20;;;24.70;92.00;;;;;;4974327;28;20064;-76
2023/06/30 10:14:16;;;;;;;4.70;1.20;;;24.80;92.00;;;;;;4992008;28;20105;-76
2023/06/30 10:17:03;;;;;;;5.10;1.58;;;24.50;92.20;;;;;;4974296;28;20066;-77
2023/06/30 10:19:51;;;;;;;4.00;1.02;;;24.10;92.50;;;;;;4991776;28;20046;-76
2023/06/30 10:22:38;;;;;;;5.35;1.05;;;24.40;92.00;;;;;;4992525;28;20533;-75
2023/06/30 10:25:26;;;;;;;2.67;1.10;;;24.60;91.30;;;;;;4990791;28;20105;-77
2023/06/30 10:28:14;;;;;;;4.78;1.23;;;24.60;91.90;;;;;;4992907;28;20046;-79
2023/06/30 10:31:01;;;;;;;8.00;1.08;;;24.30;91.00;;;;;;4991815;28;20120;-80
2023/06/30 10:33:47;;;;;;;4.55;0.90;;;24.00;90.70;;;;;;4991188;28;20505;-79
2023/06/30 10:36:34;;;;;;;8.75;1.83;;;23.70;91.60;;;;;;4991610;28;20476;-79
2023/06/30 10:39:20;;;;;;;5.97;1.15;;;24.00;91.50;;;;;;4977395;28;20153;-79
2023/06/30 10:42:06;;;;;;;5.03;0.98;;;24.40;91.20;;;;;;4991065;28;20072;-81
2023/06/30 10:44:59;;;;;;;3.28;0.77;;;24.80;91.50;;;;;;4990027;28;20490;-79
2023/06/30 10:47:51;;;;;;;3.78;1.10;;;25.30;90.70;;;;;;4972428;28;20513;-79
2023/06/30 10:50:44;;;;;;;3.90;1.17;;;25.00;90.80;;;;;;4990752;28;20446;-80
2023/06/30 10:53:30;;;;;;;4.05;1.23;;;24.70;90.50;;;;;;4988520;28;20130;-79
2023/06/30 10:56:16;;;;;;;8.48;1.38;;;24.50;91.10;;;;;;4959305;28;20116;-78
2023/06/30 10:59:04;;;;;;;3.75;1.20;;;24.10;90.10;;;;;;4973443;28;20111;-76
2023/06/30 11:02:29;;;;;;;5.45;1.15;;;24.00;90.50;;;;;;4990425;28;20061;-75
2023/06/30 11:05:23;;;;;;;3.15;0.90;;;24.20;91.00;;;;;;4971051;28;20050;-78
2023/06/30 11:08:22;;;;;;;4.55;1.20;;;24.60;89.60;;;;;;4989574;28;20054;-77
2023/06/30 11:11:08;;;;;;;5.40;1.05;;;24.70;87.90;;;;;;4975586;28;20050;-76
2023/06/30 11:14:05;;;;;;;3.13;1.15;;;24.90;88.20;;;;;;4989950;28;20047;-76
2023/06/30 11:17:07;;;;;;;6.22;0.93;;;24.90;84.00;;;;;;4972427;28;20054;-76
2023/06/30 11:20:12;;;;;;;4.28;0.93;;;24.80;84.10;;;;;;4972924;28;20054;-77
2023/06/30 11:23:03;;;;;;;5.63;1.13;;;25.10;85.10;;;;;;4973095;28;20062;-76
2023/06/30 11:25:50;;;;;;;4.00;1.10;;;25.10;83.20;;;;;;4990841;28;20046;-76
2023/06/30 11:28:37;;;;;;;3.97;0.77;;;25.00;83.40;;;;;;4991304;28;20042;-80
2023/06/30 11:31:23;;;;;;;3.58;0.95;;;25.20;83.80;;;;;;4991377;28;20101;-76
2023/06/30 11:34:09;;;;;;;5.82;1.20;;;25.30;85.00;;;;;;4990741;28;20105;-78
2023/06/30 11:36:55;;;;;;;4.63;0.93;;;25.30;85.40;;;;;;4989779;28;20057;-80
2023/06/30 11:39:50;;;;;;;4.22;0.90;;;25.00;83.60;;;;;;4989218;28;20053;-78
2023/06/30 11:42:40;;;;;;;5.70;1.33;;;25.10;80.50;;;;;;4989073;28;20511;-79
2023/06/30 11:45:29;;;;;;;4.05;1.20;;;25.10;81.70;;;;;;4991207;28;20050;-80
2023/06/30 11:48:16;;;;;;;6.80;1.10;;;25.20;83.30;;;;;;4991334;28;20391;-75
2023/06/30 11:51:02;;;;;;;3.65;0.75;;;25.30;84.90;;;;;;4973317;28;20128;-75
2023/06/30 11:53:49;;;;;;;4.28;1.20;;;25.80;84.00;;;;;;4972622;28;20084;-76
2023/06/30 11:56:38;;;;;;;3.25;1.00;;;25.80;81.50;;;;;;4973842;28;20552;-75
2023/06/30 11:59:25;;;;;;;5.07;0.88;;;25.30;81.20;;;;;;4990298;28;20058;-76
2023/06/30 12:02:12;;;;;;;2.55;0.90;;;25.00;80.50;;;;;;4989869;28;20050;-77
2023/06/30 12:04:58;;;;;;;6.15;1.48;;;25.80;80.30;;;;;;4977666;28;20481;-76
2023/06/30 12:07:46;;;;;;;10.63;1.67;;;26.20;81.60;;;;;;4993299;28;20054;-76
2023/06/30 12:10:39;;;;;;;3.47;0.95;;;26.90;82.30;;;;;;4992984;28;20129;-77
2023/06/30 12:13:29;;;;;;;4.72;1.20;;;27.10;79.90;;;;;;4993754;28;20154;-76
2023/06/30 12:16:15;;;;;;;3.08;1.00;;;27.30;80.80;;;;;;4978308;28;20054;-76
2023/06/30 12:19:06;;;;;;;3.50;0.93;;;27.00;79.80;;;;;;4993153;28;20051;-76
2023/06/30 12:21:59;;;;;;;4.35;1.05;;;26.80;79.30;;;;;;4979092;28;20053;-76
2023/06/30 12:24:54;;;;;;;4.78;1.73;;;26.90;81.80;;;;;;4993514;28;20067;-75
2023/06/30 12:27:43;;;;;;;5.25;1.75;;;26.90;79.10;;;;;;4994435;28;20465;-76
2023/06/30 12:30:29;;;;;;;3.20;1.20;;;26.50;79.70;;;;;;4993299;28;20082;-76
2023/06/30 12:33:19;;;;;;;4.60;1.60;;;26.50;81.50;;;;;;4994029;28;20129;-76
2023/06/30 12:36:06;;;;;;;7.82;1.52;;;26.20;81.60;;;;;;4993222;28;20089;-79
2023/06/30 12:38:52;;;;;;;6.07;1.15;;;25.90;83.40;;;;;;4994178;28;20053;-79
2023/06/30 12:41:38;;;;;;;4.90;1.08;;;25.90;81.80;;;;;;4977372;28;20471;-77
2023/06/30 12:44:25;;;;;;;8.35;1.40;;;26.80;83.10;;;;;;4991965;28;20046;-79
2023/06/30 12:47:11;;;;;;;4.18;1.20;;;27.10;80.40;;;;;;4992649;28;20088;-76
2023/06/30 12:49:57;;;;;;;4.35;1.33;;;27.60;81.00;;;;;;4975194;28;20137;-74
2023/06/30 12:52:43;;;;;;;3.85;1.17;;;27.30;80.80;;;;;;4962931;28;20050;-77
2023/06/30 12:55:29;;;;;;;4.55;1.23;;;27.00;80.90;;;;;;4975269;28;20058;-76
2023/06/30 12:58:16;;;;;;;5.60;1.30;;;26.80;79.50;;;;;;4992290;28;20050;-77
2023/06/30 13:01:03;;;;;;;4.80;1.20;;;27.10;78.70;;;;;;4975373;28;20050;-75
2023/06/30 13:03:49;;;;;;;5.70;1.27;;;27.10;77.40;;;;;;4992467;28;20046;-76
2023/06/30 13:06:35;;;;;;;4.40;1.38;;;27.30;77.20;;;;;;4993738;28;20058;-77
2023/06/30 13:09:21;;;;;;;4.53;1.33;;;27.40;74.50;;;;;;4991961;28;20540;-76
2023/06/30 13:12:08;;;;;;;4.43;1.27;;;26.90;75.60;;;;;;4974563;28;20108;-77
2023/06/30 13:14:54;;;;;;;4.93;1.33;;;27.00;77.20;;;;;;4992662;28;20513;-75
2023/06/30 13:17:41;;;;;;;4.97;1.48;;;26.50;75.80;;;;;;4974876;28;20061;-76
2023/06/30 13:20:27;;;;;;;4.53;1.15;;;26.20;75.10;;;;;;4976789;28;20193;-78
2023/06/30 13:23:14;;;;;;;6.88;1.67;;;26.60;76.30;;;;;;4993498;28;20046;-75
2023/06/30 13:26:00;;;;;;;4.72;1.50;;;26.30;76.60;;;;;;4993389;28;20498;-77
2023/06/30 13:28:47;;;;;;;7.32;1.67;;;26.10;78.10;;;;;;4975083;28;20051;-79
2023/06/30 13:31:33;;;;;;;5.03;1.50;;;25.90;77.90;;;;;;4974161;28;20510;-76
2023/06/30 13:34:20;;;;;;;9.10;1.80;;;25.60;78.00;;;;;;4961503;28;20196;-77
2023/06/30 13:37:06;;;;;;;6.82;1.80;;;25.40;77.40;;;;;;4975355;28;20052;-78
2023/06/30 13:39:52;;;;;;;6.53;2.35;;;25.60;79.60;;;;;;4992624;28;20052;-79
2023/06/30 13:42:38;;;;;;;5.93;1.80;;;25.70;79.60;;;;;;4991369;28;20085;-77
2023/06/30 13:45:24;;;;;;;3.55;1.45;;;25.70;79.30;;;;;;4973972;28;20217;-78
2023/06/30 13:48:10;;;;;;;5.88;1.70;;;26.00;79.80;;;;;;4974907;28;20603;-77
2023/06/30 13:50:56;;;;;;;4.85;1.35;;;26.00;79.80;;;;;;4991556;28;20055;-78
2023/06/30 13:53:43;;;;;;;7.68;1.38;;;25.60;80.20;;;;;;4992207;28;20061;-75
2023/06/30 13:56:29;;;;;;;6.90;1.30;;;26.00;79.80;;;;;;4992423;28;20053;-76
2023/06/30 13:59:15;;;;;;;9.43;1.70;;;25.70;80.20;;;;;;4990779;28;20050;-77
2023/06/30 14:02:01;;;;;;;8.57;1.60;;;26.00;79.40;;;;;;4991886;28;20054;-77
2023/06/30 14:04:47;;;;;;;4.57;1.33;;;26.40;78.80;;;;;;4978120;28;20101;-77
2023/06/30 14:07:33;;;;;;;7.00;1.88;;;27.10;79.20;;;;;;4991681;28;20050;-79
2023/06/30 14:10:19;;;;;;;5.82;1.30;;;26.80;77.00;;;;;;4991272;28;20054;-76
2023/06/30 14:13:05;;;;;;;4.75;1.65;;;26.70;78.50;;;;;;4973368;28;20058;-79
2023/06/30 14:15:51;;;;;;;4.85;2.13;;;26.60;78.10;;;;;;4961630;28;20058;-77
2023/06/30 14:18:37;;;;;;;5.55;1.70;;;26.20;79.50;;;;;;4991295;28;20050;-77
2023/06/30 14:21:24;;;;;;;8.20;2.30;;;26.90;79.70;;;;;;4992022;28;20109;-78
2023/06/30 14:24:10;;;;;;;5.88;1.80;;;27.00;79.70;;;;;;4991936;28;20057;-76
2023/06/30 14:26:56;;;;;;;5.80;2.45;;;26.80;80.50;;;;;;4973213;28;20136;-80
2023/06/30 14:29:42;;;;;;;7.95;2.17;;;26.80;79.90;;;;;;4991523;28;20117;-80